createdAt,value
2019-03-06T00:00:51.011Z,1015
2019-03-06T00:01:50.942Z,1015
2019-03-06T00:02:50.860Z,1015
2019-03-06T00:03:50.997Z,1015
2019-03-06T00:04:50.731Z,1015
2019-03-06T00:05:51.088Z,1015
2019-03-06T00:06:50.933Z,1015
2019-03-06T00:07:50.828Z,1015
2019-03-06T00:08:55.543Z,1015
2019-03-06T00:09:52.459Z,1015
2019-03-06T00:10:51.569Z,1015
2019-03-06T00:11:53.124Z,1015
2019-03-06T00:12:52.059Z,1015
2019-03-06T00:13:53.927Z,1015
2019-03-06T00:14:53.284Z,1015
2019-03-06T00:15:51.515Z,1015
2019-03-06T00:16:50.901Z,1015
2019-03-06T00:17:51.154Z,1015
2019-03-06T00:18:51.038Z,1015
2019-03-06T00:19:50.845Z,1015
2019-03-06T00:20:51.364Z,1015
2019-03-06T00:21:50.891Z,1015
2019-03-06T00:22:50.874Z,1015
2019-03-06T00:23:51.244Z,1015
2019-03-06T00:24:51.078Z,1015
2019-03-06T00:25:50.904Z,1015
2019-03-06T00:26:51.033Z,1015
2019-03-06T00:27:54.196Z,1015
2019-03-06T00:28:51.491Z,1015
2019-03-06T00:29:51.856Z,1015
2019-03-06T00:30:51.596Z,1015
2019-03-06T00:31:51.235Z,1015
2019-03-06T00:32:51.453Z,1015
2019-03-06T00:33:52.318Z,1015
2019-03-06T00:34:51.386Z,1015
2019-03-06T00:35:51.056Z,1015
2019-03-06T00:36:53.501Z,1015
2019-03-06T00:37:50.885Z,1015
2019-03-06T00:38:51.408Z,1015
2019-03-06T00:39:51.088Z,1015
2019-03-06T00:40:51.311Z,1015
2019-03-06T00:41:51.016Z,1015
2019-03-06T00:42:51.131Z,1015
2019-03-06T00:43:50.966Z,1015
2019-03-06T00:44:51.170Z,1015
2019-03-06T00:45:50.904Z,1015
2019-03-06T00:46:50.923Z,1015
2019-03-06T00:47:51.361Z,1015
2019-03-06T00:48:50.977Z,1015
2019-03-06T00:49:51.078Z,1015
2019-03-06T00:50:50.906Z,1015
2019-03-06T00:51:50.912Z,1015
2019-03-06T00:52:51.057Z,1015
2019-03-06T00:53:51.310Z,1015
2019-03-06T00:54:50.913Z,1015
2019-03-06T00:55:50.870Z,1015
2019-03-06T00:56:51.116Z,1015
2019-03-06T00:57:50.929Z,1014
2019-03-06T00:58:50.956Z,1015
2019-03-06T00:59:50.870Z,1015
2019-03-06T01:00:51.119Z,1015
2019-03-06T01:01:50.916Z,1015
2019-03-06T01:02:51.485Z,1015
2019-03-06T01:03:51.119Z,1015
2019-03-06T01:04:50.919Z,1015
2019-03-06T01:05:50.944Z,1015
2019-03-06T01:06:51.108Z,1015
2019-03-06T01:07:51.116Z,1015
2019-03-06T01:08:51.385Z,1015
2019-03-06T01:09:50.895Z,1015
2019-03-06T01:10:50.892Z,1015
2019-03-06T01:11:50.902Z,1015
2019-03-06T01:12:51.145Z,1015
2019-03-06T01:13:51.411Z,1015
2019-03-06T01:14:50.883Z,1015
2019-03-06T01:15:51.112Z,1015
2019-03-06T01:16:50.992Z,1015
2019-03-06T01:17:51.143Z,1015
2019-03-06T01:18:50.983Z,1015
2019-03-06T01:19:51.427Z,1015
2019-03-06T01:20:51.153Z,1015
2019-03-06T01:21:50.982Z,1015
2019-03-06T01:22:50.975Z,1015
2019-03-06T01:23:51.074Z,1015
2019-03-06T01:24:50.951Z,1014
2019-03-06T01:25:51.136Z,1015
2019-03-06T01:26:51.386Z,1015
2019-03-06T01:27:51.012Z,1015
2019-03-06T01:28:51.181Z,1014
2019-03-06T01:29:50.982Z,1014
2019-03-06T01:30:51.400Z,1014
2019-03-06T01:31:51.180Z,1014
2019-03-06T01:32:50.944Z,1014
2019-03-06T01:33:51.111Z,1014
2019-03-06T01:34:51.008Z,1014
2019-03-06T01:35:50.979Z,1014
2019-03-06T01:36:51.437Z,1014
2019-03-06T01:37:51.167Z,1014
2019-03-06T01:38:51.389Z,1015
2019-03-06T01:39:50.955Z,1015
2019-03-06T01:40:51.006Z,1015
2019-03-06T01:41:50.992Z,1015
2019-03-06T01:42:51.397Z,1015
2019-03-06T01:43:51.032Z,1014
2019-03-06T01:44:51.471Z,1015
2019-03-06T01:45:51.355Z,1015
2019-03-06T01:46:50.977Z,1015
2019-03-06T01:47:50.986Z,1014
2019-03-06T01:48:51.082Z,1014
2019-03-06T01:49:51.471Z,1015
2019-03-06T01:50:51.254Z,1014
2019-03-06T01:51:51.052Z,1014
2019-03-06T01:52:51.431Z,1014
2019-03-06T01:53:51.406Z,1014
2019-03-06T01:54:51.048Z,1014
2019-03-06T01:55:51.208Z,1014
2019-03-06T01:56:51.047Z,1014
2019-03-06T01:57:51.192Z,1014
2019-03-06T01:58:51.503Z,1014
2019-03-06T01:59:51.885Z,1014
2019-03-06T02:00:51.086Z,1014
2019-03-06T02:01:51.642Z,1014
2019-03-06T02:02:51.055Z,1014
2019-03-06T02:03:51.108Z,1014
2019-03-06T02:04:51.397Z,1014
2019-03-06T02:05:50.986Z,1014
2019-03-06T02:06:51.050Z,1014
2019-03-06T02:07:51.070Z,1014
2019-03-06T02:08:51.056Z,1014
2019-03-06T02:09:50.988Z,1014
2019-03-06T02:10:51.022Z,1014
2019-03-06T02:11:51.191Z,1014
2019-03-06T02:12:51.531Z,1014
2019-03-06T02:13:51.242Z,1014
2019-03-06T02:14:51.047Z,1014
2019-03-06T02:15:51.022Z,1014
2019-03-06T02:16:51.406Z,1014
2019-03-06T02:17:51.470Z,1014
2019-03-06T02:18:51.211Z,1014
2019-03-06T02:19:51.093Z,1014
2019-03-06T02:20:51.016Z,1014
2019-03-06T02:21:51.310Z,1014
2019-03-06T02:22:51.485Z,1014
2019-03-06T02:23:51.531Z,1014
2019-03-06T02:24:51.136Z,1014
2019-03-06T02:25:51.270Z,1014
2019-03-06T02:26:51.140Z,1014
2019-03-06T02:27:51.311Z,1014
2019-03-06T02:28:51.591Z,1014
2019-03-06T02:29:51.567Z,1014
2019-03-06T02:30:51.090Z,1014
2019-03-06T02:31:51.352Z,1014
2019-03-06T02:32:51.116Z,1014
2019-03-06T02:33:51.134Z,1014
2019-03-06T02:34:51.200Z,1014
2019-03-06T02:35:51.185Z,1014
2019-03-06T02:36:51.844Z,1014
2019-03-06T02:37:51.357Z,1014
2019-03-06T02:38:51.128Z,1014
2019-03-06T02:39:51.134Z,1014
2019-03-06T02:40:51.127Z,1014
2019-03-06T02:41:51.124Z,1014
2019-03-06T02:42:51.336Z,1014
2019-03-06T02:43:51.273Z,1014
2019-03-06T02:44:51.124Z,1014
2019-03-06T02:45:51.434Z,1014
2019-03-06T02:46:51.545Z,1014
2019-03-06T02:47:51.196Z,1014
2019-03-06T02:48:51.121Z,1014
2019-03-06T02:49:51.337Z,1014
2019-03-06T02:50:51.173Z,1014
2019-03-06T02:51:51.160Z,1014
2019-03-06T02:52:51.209Z,1014
2019-03-06T02:53:51.240Z,1014
2019-03-06T02:54:51.270Z,1014
2019-03-06T02:55:51.213Z,1014
2019-03-06T02:56:51.460Z,1014
2019-03-06T02:57:51.154Z,1014
2019-03-06T02:58:51.361Z,1014
2019-03-06T02:59:51.183Z,1014
2019-03-06T03:00:51.164Z,1014
2019-03-06T03:01:51.181Z,1014
2019-03-06T03:02:51.379Z,1014
2019-03-06T03:03:51.433Z,1014
2019-03-06T03:04:53.308Z,1014
2019-03-06T03:05:51.350Z,1014
2019-03-06T03:06:51.376Z,1014
2019-03-06T03:07:51.254Z,1014
2019-03-06T03:08:51.179Z,1014
2019-03-06T03:09:51.693Z,1014
2019-03-06T03:10:51.335Z,1014
2019-03-06T03:11:51.465Z,1014
2019-03-06T03:12:51.146Z,1014
2019-03-06T03:13:51.635Z,1014
2019-03-06T03:14:51.564Z,1014
2019-03-06T03:15:51.441Z,1013
2019-03-06T03:16:51.565Z,1013
2019-03-06T03:17:51.143Z,1013
2019-03-06T03:18:51.342Z,1013
2019-03-06T03:19:51.346Z,1014
2019-03-06T03:20:51.427Z,1013
2019-03-06T03:21:51.292Z,1013
2019-03-06T03:22:51.265Z,1013
2019-03-06T03:23:51.223Z,1013
2019-03-06T03:24:51.185Z,1013
2019-03-06T03:25:51.348Z,1013
2019-03-06T03:26:51.274Z,1014
2019-03-06T03:27:51.335Z,1013
2019-03-06T03:28:51.580Z,1014
2019-03-06T03:29:51.177Z,1014
2019-03-06T03:30:51.391Z,1014
2019-03-06T03:31:51.681Z,1014
2019-03-06T03:32:51.285Z,1014
2019-03-06T03:33:51.265Z,1014
2019-03-06T03:34:51.449Z,1014
2019-03-06T03:35:51.324Z,1014
2019-03-06T03:36:51.296Z,1014
2019-03-06T03:37:51.366Z,1014
2019-03-06T03:38:51.270Z,1014
2019-03-06T03:39:51.326Z,1014
2019-03-06T03:40:51.233Z,1013
2019-03-06T03:41:51.406Z,1013
2019-03-06T03:42:51.321Z,1013
2019-03-06T03:43:51.709Z,1013
2019-03-06T03:44:51.255Z,1013
2019-03-06T03:45:51.279Z,1013
2019-03-06T03:46:51.317Z,1013
2019-03-06T03:47:51.929Z,1013
2019-03-06T03:48:51.276Z,1013
2019-03-06T03:49:51.258Z,1013
2019-03-06T03:50:51.478Z,1013
2019-03-06T03:51:51.212Z,1013
2019-03-06T03:52:51.417Z,1013
2019-03-06T03:53:51.620Z,1013
2019-03-06T03:54:51.490Z,1013
2019-03-06T03:55:51.653Z,1013
2019-03-06T03:56:51.529Z,1013
2019-03-06T03:57:51.286Z,1013
2019-03-06T03:58:51.695Z,1013
2019-03-06T03:59:51.267Z,1013
2019-03-06T04:00:51.702Z,1014
2019-03-06T04:01:51.329Z,1013
2019-03-06T04:02:51.336Z,1013
2019-03-06T04:03:51.221Z,1013
2019-03-06T04:04:51.311Z,1013
2019-03-06T04:05:51.259Z,1014
2019-03-06T04:06:51.389Z,1013
2019-03-06T04:07:51.342Z,1014
2019-03-06T04:08:52.391Z,1013
2019-03-06T04:09:52.352Z,1014
2019-03-06T04:10:51.306Z,1013
2019-03-06T04:11:51.703Z,1014
2019-03-06T04:12:51.763Z,1013
2019-03-06T04:13:51.461Z,1013
2019-03-06T04:14:51.344Z,1013
2019-03-06T04:15:51.285Z,1013
2019-03-06T04:16:51.363Z,1014
2019-03-06T04:17:51.471Z,1014
2019-03-06T04:18:51.430Z,1014
2019-03-06T04:19:51.744Z,1013
2019-03-06T04:20:51.815Z,1013
2019-03-06T04:21:51.459Z,1013
2019-03-06T04:22:52.098Z,1013
2019-03-06T04:23:51.722Z,1013
2019-03-06T04:24:51.490Z,1013
2019-03-06T04:25:51.411Z,1013
2019-03-06T04:26:51.523Z,1013
2019-03-06T04:27:51.333Z,1013
2019-03-06T04:28:51.368Z,1013
2019-03-06T04:29:51.266Z,1013
2019-03-06T04:30:52.422Z,1013
2019-03-06T04:31:51.365Z,1013
2019-03-06T04:32:51.398Z,1013
2019-03-06T04:33:51.249Z,1013
2019-03-06T04:34:51.818Z,1013
2019-03-06T04:35:51.273Z,1013
2019-03-06T04:36:51.766Z,1013
2019-03-06T04:37:51.290Z,1013
2019-03-06T04:38:51.794Z,1013
2019-03-06T04:39:51.328Z,1013
2019-03-06T04:40:51.738Z,1013
2019-03-06T04:41:51.814Z,1013
2019-03-06T04:42:51.364Z,1013
2019-03-06T04:43:51.330Z,1013
2019-03-06T04:44:51.828Z,1013
2019-03-06T04:45:51.262Z,1013
2019-03-06T04:46:51.796Z,1013
2019-03-06T04:47:51.341Z,1013
2019-03-06T04:48:51.524Z,1013
2019-03-06T04:49:52.626Z,1013
2019-03-06T04:50:51.380Z,1013
2019-03-06T04:51:51.716Z,1013
2019-03-06T04:52:51.784Z,1013
2019-03-06T04:53:51.483Z,1013
2019-03-06T04:54:51.494Z,1013
2019-03-06T04:55:51.335Z,1013
2019-03-06T04:56:51.760Z,1013
2019-03-06T04:57:51.379Z,1013
2019-03-06T04:58:51.374Z,1013
2019-03-06T04:59:51.352Z,1013
2019-03-06T05:00:51.399Z,1013
2019-03-06T05:01:51.315Z,1013
2019-03-06T05:02:51.409Z,1013
2019-03-06T05:03:51.355Z,1013
2019-03-06T05:04:51.346Z,1013
2019-03-06T05:05:51.331Z,1013
2019-03-06T05:06:51.576Z,1013
2019-03-06T05:07:51.523Z,1013
2019-03-06T05:08:51.596Z,1013
2019-03-06T05:09:51.285Z,1013
2019-03-06T05:10:51.436Z,1013
2019-03-06T05:11:51.352Z,1013
2019-03-06T05:12:51.598Z,1013
2019-03-06T05:13:51.414Z,1013
2019-03-06T05:14:51.399Z,1013
2019-03-06T05:15:51.414Z,1013
2019-03-06T05:16:51.414Z,1013
2019-03-06T05:17:51.456Z,1013
2019-03-06T05:18:51.860Z,1013
2019-03-06T05:19:51.339Z,1013
2019-03-06T05:20:51.578Z,1013
2019-03-06T05:21:51.437Z,1013
2019-03-06T05:22:51.403Z,1013
2019-03-06T05:23:51.340Z,1013
2019-03-06T05:24:51.636Z,1013
2019-03-06T05:25:51.351Z,1013
2019-03-06T05:26:51.622Z,1013
2019-03-06T05:27:52.595Z,1013
2019-03-06T05:28:51.515Z,1013
2019-03-06T05:29:51.827Z,1013
2019-03-06T05:30:52.424Z,1013
2019-03-06T05:31:51.435Z,1013
2019-03-06T05:32:51.910Z,1013
2019-03-06T05:33:51.605Z,1013
2019-03-06T05:34:51.613Z,1013
2019-03-06T05:35:52.002Z,1013
2019-03-06T05:36:51.702Z,1013
2019-03-06T05:37:51.434Z,1013
2019-03-06T05:38:51.602Z,1013
2019-03-06T05:39:51.360Z,1013
2019-03-06T05:40:51.461Z,1013
2019-03-06T05:41:51.876Z,1013
2019-03-06T05:42:51.888Z,1013
2019-03-06T05:43:51.656Z,1013
2019-03-06T05:44:51.939Z,1013
2019-03-06T05:45:51.765Z,1013
2019-03-06T05:46:52.010Z,1013
2019-03-06T05:47:51.557Z,1013
2019-03-06T05:48:51.413Z,1013
2019-03-06T05:49:51.436Z,1013
2019-03-06T05:50:51.535Z,1013
2019-03-06T05:51:51.930Z,1013
2019-03-06T05:52:51.741Z,1013
2019-03-06T05:53:51.879Z,1013
2019-03-06T05:54:51.549Z,1013
2019-03-06T05:55:51.404Z,1013
2019-03-06T05:56:51.921Z,1013
2019-03-06T05:57:51.636Z,1013
2019-03-06T05:58:51.712Z,1013
2019-03-06T05:59:51.743Z,1013
2019-03-06T06:00:51.929Z,1013
2019-03-06T06:01:51.873Z,1013
2019-03-06T06:02:51.917Z,1013
2019-03-06T06:03:51.692Z,1012
2019-03-06T06:04:51.989Z,1012
2019-03-06T06:05:51.434Z,1012
2019-03-06T06:06:51.426Z,1012
2019-03-06T06:07:51.658Z,1012
2019-03-06T06:08:51.729Z,1012
2019-03-06T06:09:51.457Z,1012
2019-03-06T06:10:51.507Z,1012
2019-03-06T06:11:51.634Z,1012
2019-03-06T06:13:19.878Z,1013
2019-03-06T06:13:51.802Z,1012
2019-03-06T06:14:51.507Z,1013
2019-03-06T06:15:51.890Z,1012
2019-03-06T06:16:51.515Z,1012
2019-03-06T06:17:51.861Z,1012
2019-03-06T06:18:51.780Z,1012
2019-03-06T06:19:52.020Z,1012
2019-03-06T06:20:51.520Z,1012
2019-03-06T06:21:51.776Z,1012
2019-03-06T06:22:51.833Z,1012
2019-03-06T06:23:53.557Z,1013
2019-03-06T06:24:51.505Z,1013
2019-03-06T06:25:51.534Z,1013
2019-03-06T06:26:52.033Z,1013
2019-03-06T06:27:51.896Z,1013
2019-03-06T06:28:51.526Z,1013
2019-03-06T06:29:51.938Z,1013
2019-03-06T06:30:51.487Z,1012
2019-03-06T06:31:51.947Z,1012
2019-03-06T06:32:51.869Z,1012
2019-03-06T06:33:51.678Z,1012
2019-03-06T06:34:51.491Z,1012
2019-03-06T06:35:51.666Z,1012
2019-03-06T06:36:51.676Z,1012
2019-03-06T06:37:51.951Z,1012
2019-03-06T06:38:51.500Z,1012
2019-03-06T06:39:51.987Z,1012
2019-03-06T06:40:51.692Z,1012
2019-03-06T06:41:51.680Z,1012
2019-03-06T06:42:51.763Z,1012
2019-03-06T06:43:51.523Z,1012
2019-03-06T06:44:51.961Z,1012
2019-03-06T06:45:51.537Z,1012
2019-03-06T06:46:51.586Z,1012
2019-03-06T06:47:51.466Z,1012
2019-03-06T06:48:51.602Z,1012
2019-03-06T06:49:51.697Z,1012
2019-03-06T06:50:58.531Z,1012
2019-03-06T06:51:51.521Z,1012
2019-03-06T06:52:51.565Z,1012
2019-03-06T06:53:51.590Z,1012
2019-03-06T06:54:51.603Z,1012
2019-03-06T06:55:51.748Z,1012
2019-03-06T06:56:51.981Z,1012
2019-03-06T06:57:51.529Z,1012
2019-03-06T06:58:51.552Z,1012
2019-03-06T06:59:51.532Z,1012
2019-03-06T07:00:51.912Z,1012
2019-03-06T07:01:51.929Z,1012
2019-03-06T07:02:51.684Z,1012
2019-03-06T07:03:51.903Z,1012
2019-03-06T07:04:51.511Z,1012
2019-03-06T07:05:52.198Z,1012
2019-03-06T07:06:52.003Z,1012
2019-03-06T07:07:51.724Z,1012
2019-03-06T07:08:51.744Z,1012
2019-03-06T07:09:51.543Z,1012
2019-03-06T07:10:51.558Z,1012
2019-03-06T07:11:51.566Z,1012
2019-03-06T07:12:51.940Z,1012
2019-03-06T07:13:51.539Z,1012
2019-03-06T07:14:51.554Z,1012
2019-03-06T07:15:51.536Z,1012
2019-03-06T07:16:51.995Z,1012
2019-03-06T07:17:51.579Z,1012
2019-03-06T07:18:51.962Z,1012
2019-03-06T07:19:51.762Z,1012
2019-03-06T07:20:52.001Z,1012
2019-03-06T07:21:51.582Z,1012
2019-03-06T07:22:51.601Z,1012
2019-03-06T07:23:51.743Z,1012
2019-03-06T07:24:51.959Z,1012
2019-03-06T07:25:51.628Z,1012
2019-03-06T07:26:51.764Z,1012
2019-03-06T07:27:51.967Z,1012
2019-03-06T07:28:51.766Z,1012
2019-03-06T07:29:51.609Z,1012
2019-03-06T07:30:51.589Z,1011
2019-03-06T07:31:51.604Z,1012
2019-03-06T07:32:51.807Z,1012
2019-03-06T07:33:51.582Z,1012
2019-03-06T07:34:51.993Z,1012
2019-03-06T07:35:51.623Z,1012
2019-03-06T07:36:52.009Z,1012
2019-03-06T07:37:51.774Z,1012
2019-03-06T07:38:51.596Z,1012
2019-03-06T07:39:51.800Z,1012
2019-03-06T07:40:51.753Z,1012
2019-03-06T07:41:52.009Z,1012
2019-03-06T07:42:51.639Z,1012
2019-03-06T07:43:51.620Z,1012
2019-03-06T07:44:51.862Z,1012
2019-03-06T07:45:51.891Z,1012
2019-03-06T07:46:51.629Z,1012
2019-03-06T07:47:51.718Z,1012
2019-03-06T07:48:51.644Z,1012
2019-03-06T07:49:51.997Z,1012
2019-03-06T07:50:51.644Z,1012
2019-03-06T07:51:51.876Z,1012
2019-03-06T07:52:51.670Z,1012
2019-03-06T07:53:52.039Z,1012
2019-03-06T07:54:51.831Z,1012
2019-03-06T07:55:51.691Z,1012
2019-03-06T07:56:51.924Z,1012
2019-03-06T07:57:52.055Z,1012
2019-03-06T07:58:52.757Z,1012
2019-03-06T07:59:51.641Z,1012
2019-03-06T08:00:52.015Z,1012
2019-03-06T08:01:51.626Z,1012
2019-03-06T08:02:51.671Z,1012
2019-03-06T08:03:51.822Z,1012
2019-03-06T08:04:52.121Z,1012
2019-03-06T08:05:51.771Z,1012
2019-03-06T08:06:51.676Z,1012
2019-03-06T08:07:51.604Z,1012
2019-03-06T08:08:52.050Z,1012
2019-03-06T08:09:51.628Z,1012
2019-03-06T08:10:51.835Z,1012
2019-03-06T08:11:51.873Z,1012
2019-03-06T08:12:51.723Z,1012
2019-03-06T08:13:51.747Z,1011
2019-03-06T08:14:51.886Z,1012
2019-03-06T08:15:52.188Z,1012
2019-03-06T08:16:51.941Z,1012
2019-03-06T08:17:51.634Z,1012
2019-03-06T08:18:51.931Z,1011
2019-03-06T08:19:51.689Z,1012
2019-03-06T08:20:51.729Z,1011
2019-03-06T08:21:51.623Z,1011
2019-03-06T08:22:52.086Z,1011
2019-03-06T08:23:51.714Z,1011
2019-03-06T08:24:52.270Z,1011
2019-03-06T08:25:51.743Z,1011
2019-03-06T08:26:51.690Z,1011
2019-03-06T08:27:51.777Z,1011
2019-03-06T08:28:52.177Z,1011
2019-03-06T08:29:51.723Z,1011
2019-03-06T08:30:51.726Z,1011
2019-03-06T08:31:51.742Z,1011
2019-03-06T08:32:52.019Z,1011
2019-03-06T08:33:51.738Z,1011
2019-03-06T08:34:51.979Z,1011
2019-03-06T08:35:51.731Z,1011
2019-03-06T08:36:51.775Z,1011
2019-03-06T08:37:51.951Z,1011
2019-03-06T08:38:52.152Z,1011
2019-03-06T08:39:51.772Z,1011
2019-03-06T08:40:51.784Z,1011
2019-03-06T08:41:51.803Z,1011
2019-03-06T08:42:51.785Z,1011
2019-03-06T08:43:51.848Z,1011
2019-03-06T08:44:51.800Z,1011
2019-03-06T08:45:51.795Z,1011
2019-03-06T08:46:51.818Z,1011
2019-03-06T08:47:52.011Z,1011
2019-03-06T08:48:51.772Z,1011
2019-03-06T08:49:51.962Z,1011
2019-03-06T08:50:51.876Z,1011
2019-03-06T08:51:52.147Z,1011
2019-03-06T08:52:51.943Z,1011
2019-03-06T08:53:51.946Z,1011
2019-03-06T08:54:52.220Z,1011
2019-03-06T08:55:52.213Z,1011
2019-03-06T08:56:52.009Z,1011
2019-03-06T08:57:51.839Z,1011
2019-03-06T08:58:51.835Z,1011
2019-03-06T08:59:51.936Z,1011
2019-03-06T09:00:51.796Z,1011
2019-03-06T09:01:59.738Z,1011
2019-03-06T09:02:52.177Z,1011
2019-03-06T09:03:51.737Z,1011
2019-03-06T09:04:51.732Z,1011
2019-03-06T09:05:51.775Z,1011
2019-03-06T09:06:51.834Z,1011
2019-03-06T09:07:51.748Z,1011
2019-03-06T09:08:52.277Z,1011
2019-03-06T09:09:52.235Z,1011
2019-03-06T09:10:51.805Z,1011
2019-03-06T09:11:51.762Z,1011
2019-03-06T09:12:51.763Z,1011
2019-03-06T09:13:51.785Z,1011
2019-03-06T09:14:51.782Z,1011
2019-03-06T09:15:51.786Z,1011
2019-03-06T09:16:51.962Z,1011
2019-03-06T09:17:52.165Z,1011
2019-03-06T09:18:51.781Z,1011
2019-03-06T09:19:51.785Z,1010
2019-03-06T09:20:52.198Z,1011
2019-03-06T09:21:51.701Z,1011
2019-03-06T09:22:51.856Z,1011
2019-03-06T09:23:52.224Z,1011
2019-03-06T09:24:52.183Z,1011
2019-03-06T09:25:51.820Z,1011
2019-03-06T09:26:51.791Z,1011
2019-03-06T09:27:51.781Z,1011
2019-03-06T09:29:00.478Z,1011
2019-03-06T09:29:51.858Z,1011
2019-03-06T09:30:55.960Z,1011
2019-03-06T09:31:51.808Z,1011
2019-03-06T09:32:52.087Z,1011
2019-03-06T09:33:51.843Z,1011
2019-03-06T09:34:51.859Z,1011
2019-03-06T09:35:52.035Z,1011
2019-03-06T09:36:52.167Z,1011
2019-03-06T09:37:52.256Z,1011
2019-03-06T09:38:52.252Z,1011
2019-03-06T09:39:51.985Z,1011
2019-03-06T09:40:51.825Z,1011
2019-03-06T09:41:51.815Z,1010
2019-03-06T09:42:51.820Z,1011
2019-03-06T09:43:52.084Z,1011
2019-03-06T09:44:51.780Z,1011
2019-03-06T09:45:52.278Z,1011
2019-03-06T09:46:51.806Z,1011
2019-03-06T09:47:52.226Z,1011
2019-03-06T09:48:52.034Z,1011
2019-03-06T09:49:52.249Z,1011
2019-03-06T09:50:51.825Z,1011
2019-03-06T09:51:52.051Z,1011
2019-03-06T09:52:51.811Z,1011
2019-03-06T09:53:51.840Z,1011
2019-03-06T09:54:52.011Z,1011
2019-03-06T09:55:51.795Z,1011
2019-03-06T09:56:51.868Z,1011
2019-03-06T09:57:51.878Z,1011
2019-03-06T09:58:52.139Z,1011
2019-03-06T09:59:51.819Z,1011
2019-03-06T10:00:52.092Z,1010
2019-03-06T10:01:52.353Z,1011
2019-03-06T10:02:51.900Z,1011
2019-03-06T10:03:52.132Z,1010
2019-03-06T10:04:52.113Z,1011
2019-03-06T10:05:52.071Z,1011
2019-03-06T10:06:52.270Z,1011
2019-03-06T10:07:51.906Z,1010
2019-03-06T10:08:51.847Z,1011
2019-03-06T10:09:58.710Z,1011
2019-03-06T10:10:57.046Z,1010
2019-03-06T10:11:52.080Z,1010
2019-03-06T10:12:52.387Z,1010
2019-03-06T10:13:52.290Z,1010
2019-03-06T10:14:51.938Z,1010
2019-03-06T10:15:52.044Z,1010
2019-03-06T10:16:52.008Z,1010
2019-03-06T10:17:52.521Z,1010
2019-03-06T10:18:52.472Z,1010
2019-03-06T10:19:51.938Z,1010
2019-03-06T10:20:52.425Z,1010
2019-03-06T10:21:52.063Z,1010
2019-03-06T10:22:54.620Z,1010
2019-03-06T10:23:52.157Z,1009
2019-03-06T10:24:51.922Z,1010
2019-03-06T10:25:52.376Z,1010
2019-03-06T10:26:51.896Z,1010
2019-03-06T10:27:52.313Z,1010
2019-03-06T10:28:52.398Z,1010
2019-03-06T10:29:51.853Z,1010
2019-03-06T10:30:51.883Z,1010
2019-03-06T10:31:51.971Z,1010
2019-03-06T10:32:52.444Z,1010
2019-03-06T10:33:51.882Z,1010
2019-03-06T10:34:52.147Z,1010
2019-03-06T10:35:51.932Z,1010
2019-03-06T10:36:52.394Z,1010
2019-03-06T10:37:51.991Z,1010
2019-03-06T10:38:52.166Z,1010
2019-03-06T10:39:52.502Z,1010
2019-03-06T10:40:52.043Z,1010
2019-03-06T10:41:52.134Z,1010
2019-03-06T10:43:02.232Z,1010
2019-03-06T10:43:52.047Z,1010
2019-03-06T10:44:52.071Z,1010
2019-03-06T10:45:51.933Z,1010
2019-03-06T10:46:52.062Z,1009
2019-03-06T10:47:52.279Z,1010
2019-03-06T10:48:52.047Z,1010
2019-03-06T10:49:52.460Z,1010
2019-03-06T10:50:52.031Z,1010
2019-03-06T10:51:52.022Z,1010
2019-03-06T10:52:52.004Z,1010
2019-03-06T10:53:52.168Z,1010
2019-03-06T10:54:52.208Z,1010
2019-03-06T10:55:52.094Z,1010
2019-03-06T10:56:52.509Z,1010
2019-03-06T10:57:52.472Z,1010
2019-03-06T10:58:52.132Z,1010
2019-03-06T10:59:52.020Z,1010
2019-03-06T11:00:52.047Z,1010
2019-03-06T11:01:52.152Z,1010
2019-03-06T11:02:52.501Z,1010
2019-03-06T11:03:52.228Z,1010
2019-03-06T11:04:52.459Z,1010
2019-03-06T11:05:52.181Z,1010
2019-03-06T11:06:52.497Z,1010
2019-03-06T11:07:52.014Z,1010
2019-03-06T11:08:52.179Z,1009
2019-03-06T11:09:52.195Z,1010
2019-03-06T11:10:52.052Z,1010
2019-03-06T11:11:52.185Z,1010
2019-03-06T11:12:51.964Z,1010
2019-03-06T11:13:51.990Z,1010
2019-03-06T11:14:51.967Z,1010
2019-03-06T11:16:52.612Z,1010
2019-03-06T11:17:52.074Z,1010
2019-03-06T11:18:52.162Z,1010
2019-03-06T11:18:56.013Z,1010
2019-03-06T11:19:52.168Z,1010
2019-03-06T11:20:52.409Z,1010
2019-03-06T11:21:52.589Z,1010
2019-03-06T11:22:52.240Z,1010
2019-03-06T11:23:52.419Z,1010
2019-03-06T11:24:52.156Z,1010
2019-03-06T11:25:52.130Z,1009
2019-03-06T11:26:52.309Z,1009
2019-03-06T11:27:52.301Z,1010
2019-03-06T11:28:52.637Z,1009
2019-03-06T11:29:52.290Z,1009
2019-03-06T11:30:52.076Z,1009
2019-03-06T11:31:53.128Z,1009
2019-03-06T11:32:54.524Z,1009
2019-03-06T11:33:52.636Z,1009
2019-03-06T11:34:52.052Z,1009
2019-03-06T11:35:54.232Z,1009
2019-03-06T11:36:54.133Z,1009
2019-03-06T11:37:52.776Z,1009
2019-03-06T11:38:52.425Z,1009
2019-03-06T11:39:54.303Z,1009
2019-03-06T11:40:53.287Z,1009
2019-03-06T11:41:52.910Z,1009
2019-03-06T11:42:53.132Z,1009
2019-03-06T11:43:52.992Z,1009
2019-03-06T11:44:52.155Z,1009
2019-03-06T11:45:52.794Z,1009
2019-03-06T11:46:52.982Z,1009
2019-03-06T11:47:53.489Z,1009
2019-03-06T11:48:53.653Z,1009
2019-03-06T11:49:53.050Z,1009
2019-03-06T11:50:53.057Z,1009
2019-03-06T11:51:53.295Z,1009
2019-03-06T11:52:52.451Z,1009
2019-03-06T11:53:52.180Z,1009
2019-03-06T11:54:52.260Z,1009
2019-03-06T11:55:52.272Z,1009
2019-03-06T11:56:52.264Z,1009
2019-03-06T11:57:55.358Z,1009
2019-03-06T11:58:54.252Z,1009
2019-03-06T11:59:52.174Z,1009
2019-03-06T12:00:52.419Z,1009
2019-03-06T12:01:52.344Z,1009
2019-03-06T12:02:55.015Z,1009
2019-03-06T12:04:45.383Z,1009
2019-03-06T12:04:54.137Z,1009
2019-03-06T12:05:54.506Z,1009
2019-03-06T12:06:53.787Z,1009
2019-03-06T12:07:53.526Z,1009
2019-03-06T12:08:53.508Z,1009
2019-03-06T12:09:53.805Z,1009
2019-03-06T12:10:54.926Z,1009
2019-03-06T12:11:53.855Z,1009
2019-03-06T12:12:55.598Z,1009
2019-03-06T12:13:55.425Z,1008
2019-03-06T12:14:54.675Z,1009
2019-03-06T12:15:53.281Z,1008
2019-03-06T12:16:53.680Z,1008
2019-03-06T12:17:53.464Z,1008
2019-03-06T12:18:54.399Z,1008
2019-03-06T12:19:54.383Z,1008
2019-03-06T12:20:53.532Z,1008
2019-03-06T12:21:53.407Z,1008
2019-03-06T12:22:53.503Z,1008
2019-03-06T12:23:53.473Z,1008
2019-03-06T12:24:53.472Z,1008
2019-03-06T12:25:53.413Z,1008
2019-03-06T12:26:53.306Z,1008
2019-03-06T12:27:53.369Z,1008
2019-03-06T12:28:53.226Z,1008
2019-03-06T12:29:53.513Z,1008
2019-03-06T12:30:53.474Z,1008
2019-03-06T12:31:53.618Z,1008
2019-03-06T12:32:53.536Z,1008
2019-03-06T12:33:53.297Z,1008
2019-03-06T12:34:53.292Z,1008
2019-03-06T12:35:53.503Z,1008
2019-03-06T12:36:53.394Z,1008
2019-03-06T12:37:53.487Z,1008
2019-03-06T12:38:53.412Z,1008
2019-03-06T12:39:54.248Z,1008
2019-03-06T12:40:53.514Z,1008
2019-03-06T12:41:53.472Z,1008
2019-03-06T12:42:53.520Z,1008
2019-03-06T12:43:54.719Z,1008
2019-03-06T12:44:53.485Z,1008
2019-03-06T12:45:53.585Z,1008
2019-03-06T12:46:53.596Z,1008
2019-03-06T12:47:55.487Z,1008
2019-03-06T12:48:53.428Z,1008
2019-03-06T12:49:53.514Z,1008
2019-03-06T12:50:56.250Z,1008
2019-03-06T12:51:54.483Z,1008
2019-03-06T12:52:53.449Z,1008
2019-03-06T12:53:53.721Z,1008
2019-03-06T12:54:53.407Z,1008
2019-03-06T12:55:53.570Z,1008
2019-03-06T12:56:53.587Z,1008
2019-03-06T12:57:59.168Z,1008
2019-03-06T12:58:53.548Z,1008
2019-03-06T12:59:53.578Z,1008
2019-03-06T13:00:53.571Z,1008
2019-03-06T13:01:53.562Z,1008
2019-03-06T13:02:53.586Z,1008
2019-03-06T13:03:53.598Z,1008
2019-03-06T13:04:53.639Z,1008
2019-03-06T13:05:56.083Z,1008
2019-03-06T13:06:53.520Z,1008
2019-03-06T13:07:53.694Z,1008
2019-03-06T13:08:53.553Z,1008
2019-03-06T13:09:53.733Z,1007
2019-03-06T13:10:53.362Z,1007
2019-03-06T13:11:53.885Z,1007
2019-03-06T13:12:53.374Z,1007
2019-03-06T13:13:55.615Z,1007
2019-03-06T13:14:54.084Z,1007
2019-03-06T13:15:54.971Z,1007
2019-03-06T13:16:54.796Z,1007
2019-03-06T13:17:54.586Z,1007
2019-03-06T13:18:56.312Z,1007